Time;durP1;ratioP1;P1;durP2;ratioP2;P2;SDS_P1;SDS_P2;PMS_P1;PMS_P2;Temp;Humidity;BMP_temperature;BMP_pressure;BME280_temperature;BME280_humidity;BME280_pressure;Samples;Min_cycle;Max_cycle;Signal;HPM_P1;HPM_P2
2024/01/11 00:01:23;;;;;;;8.98;3.45;;;;;;;;;;5051400;28;20406;-68
2024/01/11 00:04:09;;;;;;;10.30;3.20;;;;;;;;;;5054123;28;20021;-68
2024/01/11 00:06:55;;;;;;;9.95;4.03;;;;;;;;;;5050268;28;20090;-68
2024/01/11 00:09:42;;;;;;;9.43;3.60;;;;;;;;;;5034629;28;20483;-68
2024/01/11 00:12:27;;;;;;;10.63;4.07;;;;;;;;;;5025374;28;20036;-68
2024/01/11 00:15:13;;;;;;;8.45;3.17;;;;;;;;;;5053708;28;20520;-67
2024/01/11 00:17:59;;;;;;;7.72;3.63;;;;;;;;;;5050093;28;20033;-68
2024/01/11 00:20:44;;;;;;;7.88;3.38;;;;;;;;;;5035035;28;20056;-68
2024/01/11 00:23:30;;;;;;;9.68;3.92;;;;;;;;;;5033861;28;20021;-68
2024/01/11 00:26:15;;;;;;;13.40;6.03;;;;;;;;;;5034390;28;20022;-67
2024/01/11 00:29:02;;;;;;;11.25;4.03;;;;;;;;;;5033040;28;20479;-67
2024/01/11 00:31:47;;;;;;;6.13;3.50;;;;;;;;;;5039507;28;20033;-68
2024/01/11 00:34:33;;;;;;;5.53;2.97;;;;;;;;;;5033894;28;20509;-67
2024/01/11 00:37:19;;;;;;;8.23;3.38;;;;;;;;;;5042466;28;20041;-68
2024/01/11 00:40:05;;;;;;;4.85;1.98;;;;;;;;;;5033260;28;20450;-68
2024/01/11 00:42:51;;;;;;;6.07;2.45;;;;;;;;;;5040760;28;20025;-68
2024/01/11 00:45:37;;;;;;;7.43;2.25;;;;;;;;;;5033814;28;20018;-67
2024/01/11 00:48:22;;;;;;;4.20;2.22;;;;;;;;;;5039538;28;20029;-68
2024/01/11 00:51:08;;;;;;;8.05;2.65;;;;;;;;;;5033679;28;20029;-68
2024/01/11 00:53:53;;;;;;;4.32;2.00;;;;;;;;;;5036118;28;20028;-68
2024/01/11 00:56:39;;;;;;;3.90;2.35;;;;;;;;;;5053731;28;20554;-67
2024/01/11 00:59:25;;;;;;;6.82;3.20;;;;;;;;;;5053698;28;20457;-68
2024/01/11 01:02:10;;;;;;;3.95;2.13;;;;;;;;;;5039027;28;20021;-68
2024/01/11 01:04:56;;;;;;;4.68;2.08;;;;;;;;;;5033443;28;20029;-68
2024/01/11 01:07:42;;;;;;;5.82;2.75;;;;;;;;;;5032952;28;20108;-68
2024/01/11 01:10:27;;;;;;;6.25;2.53;;;;;;;;;;5034270;28;20399;-68
2024/01/11 01:13:13;;;;;;;7.60;2.88;;;;;;;;;;5050235;28;20037;-67
2024/01/11 01:15:58;;;;;;;5.32;2.75;;;;;;;;;;5052686;28;20033;-68
2024/01/11 01:18:44;;;;;;;5.00;1.98;;;;;;;;;;5053587;28;20513;-68
2024/01/11 01:21:30;;;;;;;4.00;2.17;;;;;;;;;;5052491;28;20024;-67
2024/01/11 01:24:15;;;;;;;4.63;2.47;;;;;;;;;;5053070;28;20017;-68
2024/01/11 01:27:01;;;;;;;5.20;1.92;;;;;;;;;;5052898;28;20024;-68
2024/01/11 01:29:47;;;;;;;3.40;1.73;;;;;;;;;;5033394;28;20047;-68
2024/01/11 01:32:32;;;;;;;5.30;2.58;;;;;;;;;;5044206;28;20029;-68
2024/01/11 01:35:18;;;;;;;4.28;1.90;;;;;;;;;;5047888;28;20028;-68
2024/01/11 01:38:04;;;;;;;2.33;1.55;;;;;;;;;;5052929;28;20374;-68
2024/01/11 01:40:49;;;;;;;4.78;2.33;;;;;;;;;;5054026;28;20013;-68
2024/01/11 01:43:35;;;;;;;5.72;2.45;;;;;;;;;;5035410;28;20045;-67
2024/01/11 01:46:23;;;;;;;6.95;2.50;;;;;;;;;;5033157;28;20491;-68
2024/01/11 01:49:10;;;;;;;6.82;2.45;;;;;;;;;;5026532;28;20044;-68
2024/01/11 01:51:56;;;;;;;4.90;2.22;;;;;;;;;;5048549;28;20495;-68
2024/01/11 01:54:42;;;;;;;3.13;2.33;;;;;;;;;;5036750;28;20025;-68
2024/01/11 01:57:28;;;;;;;4.45;1.90;;;;;;;;;;5027570;28;20074;-68
2024/01/11 02:00:14;;;;;;;5.47;1.92;;;;;;;;;;5036673;28;20036;-68
2024/01/11 02:03:00;;;;;;;4.95;2.15;;;;;;;;;;5054886;28;20044;-68
2024/01/11 02:05:46;;;;;;;2.90;1.80;;;;;;;;;;5040604;28;20032;-67
2024/01/11 02:08:31;;;;;;;5.60;2.30;;;;;;;;;;5031724;28;20037;-68
2024/01/11 02:11:17;;;;;;;4.43;2.33;;;;;;;;;;5035238;28;20025;-68
2024/01/11 02:14:03;;;;;;;5.97;2.17;;;;;;;;;;5034305;28;20027;-68
2024/01/11 02:16:49;;;;;;;7.38;2.53;;;;;;;;;;5056293;28;20025;-67
2024/01/11 02:19:34;;;;;;;6.18;2.33;;;;;;;;;;5049676;28;20052;-66
2024/01/11 02:22:30;;;;;;;8.45;3.38;;;;;;;;;;5028068;28;20109;-68
2024/01/11 02:25:16;;;;;;;6.88;2.80;;;;;;;;;;5021532;28;20017;-68
2024/01/11 02:28:02;;;;;;;6.82;2.08;;;;;;;;;;5039455;28;20040;-67
2024/01/11 02:30:47;;;;;;;5.72;1.90;;;;;;;;;;5035159;28;20060;-68
2024/01/11 02:33:34;;;;;;;6.20;2.38;;;;;;;;;;5041943;28;20102;-67
2024/01/11 02:36:23;;;;;;;10.73;2.97;;;;;;;;;;5035970;28;20030;-68
2024/01/11 02:39:09;;;;;;;6.60;2.45;;;;;;;;;;5035793;28;20029;-68
2024/01/11 02:41:57;;;;;;;7.95;3.42;;;;;;;;;;5035592;28;20100;-68
2024/01/11 02:44:43;;;;;;;6.47;3.08;;;;;;;;;;5021819;28;20112;-68
2024/01/11 02:47:28;;;;;;;8.30;2.80;;;;;;;;;;5035354;28;20112;-68
2024/01/11 02:50:14;;;;;;;15.65;3.67;;;;;;;;;;5035103;28;20022;-68
2024/01/11 02:53:00;;;;;;;5.32;2.60;;;;;;;;;;5034959;28;20029;-68
2024/01/11 02:55:45;;;;;;;5.00;2.78;;;;;;;;;;5035161;28;20053;-68
2024/01/11 02:58:31;;;;;;;10.40;3.33;;;;;;;;;;5036274;28;20112;-68
2024/01/11 03:01:16;;;;;;;9.32;2.67;;;;;;;;;;5035774;28;20028;-68
2024/01/11 03:04:02;;;;;;;10.48;2.47;;;;;;;;;;5036129;28;20063;-68
2024/01/11 03:06:48;;;;;;;9.25;3.67;;;;;;;;;;5036449;28;20549;-68
2024/01/11 03:09:34;;;;;;;5.18;2.58;;;;;;;;;;5034847;28;20079;-68
2024/01/11 03:12:19;;;;;;;10.35;2.35;;;;;;;;;;5034526;28;20414;-68
2024/01/11 03:15:05;;;;;;;10.02;2.53;;;;;;;;;;5035216;28;20031;-68
2024/01/11 03:17:51;;;;;;;11.00;2.85;;;;;;;;;;5034976;28;20033;-68
2024/01/11 03:20:37;;;;;;;15.73;2.85;;;;;;;;;;5035289;28;20029;-68
2024/01/11 03:23:22;;;;;;;9.05;2.17;;;;;;;;;;5035791;28;20379;-68
2024/01/11 03:26:16;;;;;;;8.48;2.10;;;;;;;;;;5035559;28;20021;-68
2024/01/11 03:29:01;;;;;;;5.68;2.05;;;;;;;;;;5020681;28;20397;-68
2024/01/11 03:31:47;;;;;;;17.58;2.63;;;;;;;;;;5035158;28;20061;-68
2024/01/11 03:34:32;;;;;;;13.20;2.53;;;;;;;;;;5035843;28;20060;-68
2024/01/11 03:37:18;;;;;;;3.72;1.70;;;;;;;;;;5035958;28;20021;-68
2024/01/11 03:40:04;;;;;;;3.30;1.83;;;;;;;;;;5034249;28;20047;-68
2024/01/11 03:42:50;;;;;;;5.68;1.75;;;;;;;;;;5035488;28;20475;-68
2024/01/11 03:45:36;;;;;;;8.68;1.95;;;;;;;;;;5035188;28;20399;-68
2024/01/11 03:48:22;;;;;;;12.43;2.25;;;;;;;;;;5035284;28;20080;-68
2024/01/11 03:51:07;;;;;;;1.80;1.33;;;;;;;;;;5034040;28;20454;-68
2024/01/11 03:53:53;;;;;;;3.78;1.33;;;;;;;;;;5034305;28;20025;-68
2024/01/11 03:56:39;;;;;;;3.85;1.75;;;;;;;;;;5035223;28;20091;-68
2024/01/11 03:59:24;;;;;;;5.85;1.85;;;;;;;;;;5034291;28;20482;-68
2024/01/11 04:02:10;;;;;;;3.25;1.80;;;;;;;;;;5034597;28;20098;-68
2024/01/11 04:04:56;;;;;;;9.27;2.05;;;;;;;;;;5039458;28;20033;-68
2024/01/11 04:07:41;;;;;;;3.45;2.08;;;;;;;;;;5041247;28;20018;-68
2024/01/11 04:10:27;;;;;;;3.47;1.35;;;;;;;;;;5046537;28;20140;-68
2024/01/11 04:13:12;;;;;;;3.20;1.58;;;;;;;;;;5041646;28;20076;-68
2024/01/11 04:15:58;;;;;;;5.50;1.73;;;;;;;;;;5035084;28;20025;-68
2024/01/11 04:18:44;;;;;;;2.53;1.83;;;;;;;;;;5040058;28;20028;-67
2024/01/11 04:21:29;;;;;;;3.00;1.52;;;;;;;;;;5055251;28;20029;-67
2024/01/11 04:24:15;;;;;;;2.08;1.38;;;;;;;;;;5055307;28;20505;-68
2024/01/11 04:27:01;;;;;;;2.80;1.38;;;;;;;;;;5051916;28;20029;-68
2024/01/11 04:29:46;;;;;;;3.00;1.40;;;;;;;;;;5054354;28;20017;-67
2024/01/11 04:32:32;;;;;;;7.47;1.58;;;;;;;;;;5052942;28;20135;-68
2024/01/11 04:35:17;;;;;;;3.90;1.40;;;;;;;;;;5052445;28;20052;-67
2024/01/11 04:38:03;;;;;;;4.47;1.50;;;;;;;;;;5049557;28;20115;-68
2024/01/11 04:40:49;;;;;;;4.18;2.20;;;;;;;;;;5053866;28;20017;-68
2024/01/11 04:43:44;;;;;;;2.05;1.45;;;;;;;;;;5053728;28;20028;-68
2024/01/11 04:46:30;;;;;;;7.40;1.98;;;;;;;;;;5053154;28;20107;-67
2024/01/11 04:49:15;;;;;;;2.40;1.65;;;;;;;;;;5054256;28;20021;-68
2024/01/11 04:52:01;;;;;;;4.25;1.85;;;;;;;;;;5044918;28;20026;-68
2024/01/11 04:54:46;;;;;;;2.38;1.42;;;;;;;;;;5033560;28;20029;-68
2024/01/11 04:57:32;;;;;;;3.17;1.55;;;;;;;;;;5033872;28;20514;-68
2024/01/11 05:00:18;;;;;;;2.75;1.45;;;;;;;;;;5034207;28;20479;-68
2024/01/11 05:03:03;;;;;;;3.33;1.60;;;;;;;;;;5033317;28;20368;-68
2024/01/11 05:05:49;;;;;;;3.63;1.55;;;;;;;;;;5048931;28;20032;-68
2024/01/11 05:08:35;;;;;;;5.15;2.05;;;;;;;;;;5053601;28;20028;-68
2024/01/11 05:11:24;;;;;;;2.20;1.65;;;;;;;;;;5053049;28;20033;-68
2024/01/11 05:14:09;;;;;;;2.60;1.67;;;;;;;;;;5038361;28;20032;-67
2024/01/11 05:16:55;;;;;;;5.15;2.50;;;;;;;;;;5053428;28;20021;-68
2024/01/11 05:19:41;;;;;;;8.57;3.35;;;;;;;;;;5053530;28;20063;-68
2024/01/11 05:22:27;;;;;;;6.55;2.75;;;;;;;;;;5052934;28;20033;-68
2024/01/11 05:25:12;;;;;;;7.38;3.50;;;;;;;;;;5055071;28;20420;-68
2024/01/11 05:27:58;;;;;;;3.90;2.40;;;;;;;;;;5057319;28;20029;-68
2024/01/11 05:30:44;;;;;;;4.90;1.98;;;;;;;;;;5054419;28;20017;-68
2024/01/11 05:33:30;;;;;;;4.57;2.22;;;;;;;;;;5036083;28;20033;-67
2024/01/11 05:36:16;;;;;;;4.13;2.47;;;;;;;;;;5040634;28;20033;-68
2024/01/11 05:39:01;;;;;;;4.85;2.65;;;;;;;;;;5036995;28;20072;-68
2024/01/11 05:41:47;;;;;;;3.63;2.30;;;;;;;;;;5053777;28;20055;-68
2024/01/11 05:44:32;;;;;;;4.90;2.40;;;;;;;;;;5056093;28;20025;-68
2024/01/11 05:47:18;;;;;;;3.67;2.13;;;;;;;;;;5057240;28;20028;-68
2024/01/11 05:50:05;;;;;;;4.55;2.67;;;;;;;;;;5049338;28;20078;-67
2024/01/11 05:52:53;;;;;;;4.50;2.25;;;;;;;;;;5048744;28;20521;-68
2024/01/11 05:55:39;;;;;;;4.25;2.20;;;;;;;;;;5042237;28;20195;-68
2024/01/11 05:58:25;;;;;;;11.00;2.45;;;;;;;;;;5056516;28;20025;-68
2024/01/11 06:01:11;;;;;;;5.80;2.67;;;;;;;;;;5055767;28;20024;-68
2024/01/11 06:03:56;;;;;;;9.20;2.92;;;;;;;;;;5053954;28;20021;-67
2024/01/11 06:06:42;;;;;;;6.95;2.88;;;;;;;;;;5052083;28;20032;-68
2024/01/11 06:09:28;;;;;;;7.00;2.90;;;;;;;;;;5055345;28;20021;-68
2024/01/11 06:12:14;;;;;;;6.53;3.35;;;;;;;;;;5052111;28;20021;-67
2024/01/11 06:14:59;;;;;;;5.45;2.95;;;;;;;;;;5035280;28;20083;-68
2024/01/11 06:17:45;;;;;;;8.05;3.22;;;;;;;;;;5035230;28;20030;-68
2024/01/11 06:20:31;;;;;;;7.90;3.08;;;;;;;;;;5021688;28;20026;-68
2024/01/11 06:23:16;;;;;;;6.72;3.65;;;;;;;;;;5035631;28;20025;-68
2024/01/11 06:26:02;;;;;;;6.18;3.35;;;;;;;;;;5036050;28;20032;-68
2024/01/11 06:28:48;;;;;;;8.70;3.97;;;;;;;;;;5036661;28;20075;-68
2024/01/11 06:31:34;;;;;;;6.35;3.38;;;;;;;;;;5027994;28;20026;-68
2024/01/11 06:34:19;;;;;;;10.27;3.42;;;;;;;;;;5048192;28;20028;-68
2024/01/11 06:37:05;;;;;;;11.52;3.92;;;;;;;;;;5055595;28;20025;-68
2024/01/11 06:39:51;;;;;;;7.85;3.55;;;;;;;;;;5040306;28;20017;-68
2024/01/11 06:42:36;;;;;;;8.95;3.97;;;;;;;;;;5056362;28;20025;-68
2024/01/11 06:45:22;;;;;;;10.13;3.35;;;;;;;;;;5056979;28;20386;-68
2024/01/11 06:48:08;;;;;;;8.02;3.75;;;;;;;;;;5050306;28;20065;-68
2024/01/11 06:50:53;;;;;;;10.23;4.72;;;;;;;;;;5056157;28;20031;-68
2024/01/11 06:53:39;;;;;;;7.50;3.83;;;;;;;;;;5055893;28;20033;-68
2024/01/11 06:56:24;;;;;;;11.25;5.38;;;;;;;;;;5056390;28;20017;-68
2024/01/11 06:59:10;;;;;;;8.38;4.72;;;;;;;;;;5056204;28;20100;-68
2024/01/11 07:01:56;;;;;;;7.70;3.50;;;;;;;;;;5047354;28;20030;-68
2024/01/11 07:04:45;;;;;;;9.05;4.40;;;;;;;;;;5040100;28;20032;-68
2024/01/11 07:07:30;;;;;;;12.45;4.47;;;;;;;;;;5035018;28;20021;-67
2024/01/11 07:10:16;;;;;;;9.98;3.88;;;;;;;;;;5036347;28;20028;-68
2024/01/11 07:13:01;;;;;;;8.18;3.50;;;;;;;;;;5035879;28;20505;-68
2024/01/11 07:15:48;;;;;;;9.27;3.70;;;;;;;;;;5036283;28;20029;-68
2024/01/11 07:18:33;;;;;;;8.98;4.00;;;;;;;;;;5034578;28;20490;-68
2024/01/11 07:21:29;;;;;;;7.72;4.40;;;;;;;;;;5036211;28;20163;-68
2024/01/11 07:24:15;;;;;;;8.90;3.97;;;;;;;;;;5021844;28;20022;-68
2024/01/11 07:27:01;;;;;;;10.23;4.30;;;;;;;;;;5034622;28;20057;-68
2024/01/11 07:29:46;;;;;;;10.23;4.13;;;;;;;;;;5051384;28;20112;-68
2024/01/11 07:32:32;;;;;;;11.15;4.25;;;;;;;;;;5052301;28;20068;-67
2024/01/11 07:35:18;;;;;;;9.57;5.03;;;;;;;;;;5055070;28;20017;-68
2024/01/11 07:38:03;;;;;;;9.77;4.13;;;;;;;;;;5055982;28;20032;-68
2024/01/11 07:40:49;;;;;;;10.68;4.75;;;;;;;;;;5054918;28;20052;-68
2024/01/11 07:43:35;;;;;;;9.18;4.97;;;;;;;;;;5052910;28;20108;-68
2024/01/11 07:46:21;;;;;;;8.30;5.25;;;;;;;;;;5042291;28;20061;-68
2024/01/11 07:49:06;;;;;;;10.90;4.82;;;;;;;;;;5042115;28;20017;-68
2024/01/11 07:51:52;;;;;;;8.00;4.60;;;;;;;;;;5055046;28;20111;-68
2024/01/11 07:54:37;;;;;;;12.63;4.72;;;;;;;;;;5051498;28;20509;-68
2024/01/11 07:57:23;;;;;;;11.80;4.65;;;;;;;;;;5054657;28;20048;-68
2024/01/11 08:00:09;;;;;;;10.48;5.57;;;;;;;;;;5049936;28;20028;-68
2024/01/11 08:02:54;;;;;;;15.00;5.70;;;;;;;;;;5034067;28;20029;-67
2024/01/11 08:05:40;;;;;;;11.68;5.15;;;;;;;;;;5041689;28;20083;-67
2024/01/11 08:08:26;;;;;;;11.88;5.03;;;;;;;;;;5034692;28;20053;-68
2024/01/11 08:11:12;;;;;;;15.38;4.97;;;;;;;;;;5041870;28;20384;-68
2024/01/11 08:13:57;;;;;;;16.08;7.78;;;;;;;;;;5035241;28;20025;-67
2024/01/11 08:16:43;;;;;;;17.15;5.85;;;;;;;;;;5039092;28;20029;-67
2024/01/11 08:19:29;;;;;;;9.77;4.97;;;;;;;;;;5053899;28;20526;-67
2024/01/11 08:22:15;;;;;;;17.13;6.38;;;;;;;;;;5049193;28;20029;-67
2024/01/11 08:25:02;;;;;;;14.25;5.22;;;;;;;;;;5040318;28;20033;-68
2024/01/11 08:27:48;;;;;;;10.00;4.57;;;;;;;;;;5033655;28;20076;-68
2024/01/11 08:30:33;;;;;;;23.25;10.90;;;;;;;;;;5040146;28;20479;-68
2024/01/11 08:33:19;;;;;;;17.50;8.20;;;;;;;;;;5031860;28;20056;-67
2024/01/11 08:36:06;;;;;;;10.48;5.05;;;;;;;;;;5037272;28;20108;-68
2024/01/11 08:38:52;;;;;;;10.52;5.07;;;;;;;;;;5052594;28;20123;-68
2024/01/11 08:41:37;;;;;;;10.90;5.40;;;;;;;;;;5032705;28;20033;-67
2024/01/11 08:44:23;;;;;;;8.55;4.78;;;;;;;;;;5040523;28;20104;-67
2024/01/11 08:47:09;;;;;;;13.82;4.55;;;;;;;;;;5033766;28;20498;-67
2024/01/11 08:49:56;;;;;;;11.65;5.07;;;;;;;;;;5035639;28;20016;-67
2024/01/11 08:52:42;;;;;;;12.75;4.30;;;;;;;;;;5053525;28;20064;-67
2024/01/11 08:55:27;;;;;;;11.82;5.00;;;;;;;;;;5052231;28;20074;-68
2024/01/11 08:58:16;;;;;;;7.82;4.43;;;;;;;;;;5035480;28;20179;-67
2024/01/11 09:01:02;;;;;;;12.85;5.13;;;;;;;;;;5032813;28;20017;-67
2024/01/11 09:03:48;;;;;;;16.75;5.68;;;;;;;;;;5048929;28;20021;-68
2024/01/11 09:06:34;;;;;;;8.93;4.53;;;;;;;;;;5052611;28;20017;-68
2024/01/11 09:09:20;;;;;;;11.50;5.28;;;;;;;;;;5053187;28;20513;-69
2024/01/11 09:12:06;;;;;;;10.13;5.20;;;;;;;;;;5052315;28;20051;-68
2024/01/11 09:14:52;;;;;;;13.70;4.25;;;;;;;;;;5052115;28;20025;-68
2024/01/11 09:17:38;;;;;;;14.25;4.53;;;;;;;;;;5044302;28;20400;-68
2024/01/11 09:20:24;;;;;;;12.48;4.50;;;;;;;;;;5031905;28;20033;-68
2024/01/11 09:23:09;;;;;;;8.93;5.00;;;;;;;;;;5025656;28;20095;-68
2024/01/11 09:25:55;;;;;;;8.38;4.18;;;;;;;;;;5031309;28;20021;-68
2024/01/11 09:28:41;;;;;;;14.75;4.57;;;;;;;;;;5036314;28;20087;-68
2024/01/11 09:31:26;;;;;;;16.67;5.78;;;;;;;;;;5053331;28;20056;-68
2024/01/11 09:34:12;;;;;;;10.02;4.65;;;;;;;;;;5053288;28;20483;-68
2024/01/11 09:36:58;;;;;;;11.65;4.88;;;;;;;;;;5044769;28;20021;-68
2024/01/11 09:39:44;;;;;;;13.57;5.15;;;;;;;;;;5032267;28;20029;-68
2024/01/11 09:42:30;;;;;;;15.45;4.70;;;;;;;;;;5040459;28;20032;-68
2024/01/11 09:45:16;;;;;;;9.80;4.72;;;;;;;;;;5032842;28;20099;-67
2024/01/11 09:48:04;;;;;;;21.38;6.65;;;;;;;;;;5036297;28;20025;-68
2024/01/11 09:50:50;;;;;;;15.00;5.63;;;;;;;;;;5032719;28;20126;-68
2024/01/11 09:53:38;;;;;;;15.70;4.88;;;;;;;;;;5031586;28;20108;-67
2024/01/11 09:56:24;;;;;;;15.68;6.05;;;;;;;;;;5033548;28;20036;-68
2024/01/11 09:59:10;;;;;;;17.13;5.57;;;;;;;;;;5018589;28;20083;-68
2024/01/11 10:01:56;;;;;;;13.23;5.22;;;;;;;;;;5047247;28;20025;-68
2024/01/11 10:04:42;;;;;;;17.13;4.85;;;;;;;;;;5047956;28;20059;-68
2024/01/11 10:07:28;;;;;;;12.20;5.07;;;;;;;;;;5049725;28;20025;-68
2024/01/11 10:10:17;;;;;;;15.00;4.43;;;;;;;;;;5022127;28;20034;-68
2024/01/11 10:13:03;;;;;;;11.60;3.75;;;;;;;;;;5054242;28;20059;-68
2024/01/11 10:15:48;;;;;;;8.23;3.60;;;;;;;;;;5056580;28;20028;-68
2024/01/11 10:18:34;;;;;;;9.30;3.88;;;;;;;;;;5053136;28;20059;-67
2024/01/11 10:21:20;;;;;;;16.05;3.83;;;;;;;;;;5035230;28;20112;-67
2024/01/11 10:24:05;;;;;;;13.05;4.95;;;;;;;;;;5039874;28;20368;-68
2024/01/11 10:27:03;;;;;;;19.35;6.20;;;;;;;;;;5055479;28;20033;-68
2024/01/11 10:29:51;;;;;;;15.23;6.35;;;;;;;;;;5054500;28;20036;-68
2024/01/11 10:32:38;;;;;;;17.65;6.03;;;;;;;;;;5055072;28;20371;-68
2024/01/11 10:35:23;;;;;;;11.35;4.75;;;;;;;;;;5039679;28;20442;-68
2024/01/11 10:38:09;;;;;;;10.18;3.88;;;;;;;;;;5035939;28;20083;-68
2024/01/11 10:40:55;;;;;;;7.35;5.03;;;;;;;;;;5041239;28;20025;-68
2024/01/11 10:43:41;;;;;;;13.02;4.45;;;;;;;;;;5038986;28;20025;-68
2024/01/11 10:46:28;;;;;;;14.40;3.70;;;;;;;;;;5052660;28;20021;-68
2024/01/11 10:49:17;;;;;;;15.00;4.53;;;;;;;;;;5036037;28;20040;-67
2024/01/11 10:52:06;;;;;;;18.50;4.05;;;;;;;;;;5054802;28;20407;-68
2024/01/11 10:54:52;;;;;;;16.17;4.40;;;;;;;;;;5026168;28;20029;-68
2024/01/11 10:57:39;;;;;;;17.85;4.53;;;;;;;;;;5020254;28;20398;-68
2024/01/11 11:00:25;;;;;;;10.82;3.42;;;;;;;;;;5032639;28;20032;-69
2024/01/11 11:03:11;;;;;;;15.48;6.05;;;;;;;;;;5040099;28;20383;-68
2024/01/11 11:05:58;;;;;;;14.82;3.63;;;;;;;;;;5044772;28;20057;-69
2024/01/11 11:08:44;;;;;;;13.20;4.45;;;;;;;;;;5020531;28;20031;-69
2024/01/11 11:11:34;;;;;;;15.73;3.70;;;;;;;;;;5044273;28;20029;-68
2024/01/11 11:14:20;;;;;;;9.45;4.40;;;;;;;;;;5054951;28;20036;-68
2024/01/11 11:17:06;;;;;;;13.75;3.67;;;;;;;;;;5030004;28;20065;-69
2024/01/11 11:19:52;;;;;;;17.50;5.47;;;;;;;;;;5051760;28;20029;-68
2024/01/11 11:22:40;;;;;;;14.63;3.35;;;;;;;;;;5055073;28;20021;-67
2024/01/11 11:25:26;;;;;;;11.45;3.80;;;;;;;;;;5040159;28;20061;-68
2024/01/11 11:28:13;;;;;;;17.65;5.10;;;;;;;;;;5035315;28;20155;-68
2024/01/11 11:30:59;;;;;;;17.08;4.13;;;;;;;;;;5025857;28;20410;-68
2024/01/11 11:33:48;;;;;;;14.25;4.25;;;;;;;;;;5033812;28;20026;-67
2024/01/11 11:36:35;;;;;;;15.35;4.25;;;;;;;;;;5038322;28;20036;-67
2024/01/11 11:39:21;;;;;;;7.70;3.08;;;;;;;;;;5055226;28;20021;-67
2024/01/11 11:42:07;;;;;;;16.33;4.10;;;;;;;;;;5054279;28;20027;-68
2024/01/11 11:44:53;;;;;;;11.27;4.22;;;;;;;;;;5054841;28;20032;-68
2024/01/11 11:47:38;;;;;;;9.50;2.85;;;;;;;;;;5054791;28;20051;-67
2024/01/11 11:50:24;;;;;;;8.40;3.20;;;;;;;;;;5055473;28;20563;-68
2024/01/11 11:53:10;;;;;;;12.70;3.63;;;;;;;;;;5053957;28;20115;-68
2024/01/11 11:55:56;;;;;;;12.13;3.20;;;;;;;;;;5054008;28;20098;-68
2024/01/11 11:58:43;;;;;;;13.38;3.72;;;;;;;;;;5039906;28;20033;-68
2024/01/11 12:01:29;;;;;;;14.93;4.57;;;;;;;;;;5038243;28;20017;-68
2024/01/11 12:04:14;;;;;;;9.77;3.50;;;;;;;;;;5039695;28;20078;-67
2024/01/11 12:07:00;;;;;;;18.40;4.20;;;;;;;;;;5049957;28;20029;-68
2024/01/11 12:09:46;;;;;;;7.53;3.15;;;;;;;;;;5038356;28;20025;-67
2024/01/11 12:12:34;;;;;;;16.25;3.40;;;;;;;;;;5034672;28;20021;-67
2024/01/11 12:15:20;;;;;;;20.48;3.20;;;;;;;;;;5038075;28;20043;-68
2024/01/11 12:18:06;;;;;;;25.45;3.90;;;;;;;;;;5038834;28;20026;-67
2024/01/11 12:20:55;;;;;;;9.40;3.20;;;;;;;;;;5019476;28;20021;-68
2024/01/11 12:23:43;;;;;;;14.30;3.30;;;;;;;;;;5032577;28;20059;-68
2024/01/11 12:26:28;;;;;;;9.88;3.25;;;;;;;;;;5038163;28;20079;-68
2024/01/11 12:29:14;;;;;;;11.25;3.58;;;;;;;;;;5027961;28;20088;-68
2024/01/11 12:32:00;;;;;;;13.95;3.17;;;;;;;;;;5032448;28;20033;-68
2024/01/11 12:34:46;;;;;;;8.10;3.00;;;;;;;;;;5023767;28;20498;-68
2024/01/11 12:37:32;;;;;;;16.60;3.30;;;;;;;;;;5025084;28;20029;-69
2024/01/11 12:40:17;;;;;;;11.48;3.30;;;;;;;;;;5037856;28;20017;-68
2024/01/11 12:43:04;;;;;;;9.80;3.28;;;;;;;;;;5038137;28;20032;-68
2024/01/11 12:45:49;;;;;;;8.10;2.47;;;;;;;;;;5053433;28;20116;-68
2024/01/11 12:48:35;;;;;;;13.02;4.07;;;;;;;;;;5048423;28;20029;-68
2024/01/11 12:51:21;;;;;;;8.27;2.47;;;;;;;;;;5034028;28;20099;-68
2024/01/11 12:54:14;;;;;;;9.77;3.90;;;;;;;;;;5036606;28;20021;-68
2024/01/11 12:57:00;;;;;;;12.75;3.40;;;;;;;;;;5037971;28;20103;-68
2024/01/11 12:59:47;;;;;;;9.10;2.55;;;;;;;;;;5037953;28;20075;-68
2024/01/11 13:02:32;;;;;;;8.52;2.83;;;;;;;;;;5039088;28;20087;-67
2024/01/11 13:05:18;;;;;;;12.55;2.85;;;;;;;;;;5049579;28;20036;-69
2024/01/11 13:08:08;;;;;;;14.93;3.70;;;;;;;;;;5033012;28;20395;-67
2024/01/11 13:10:54;;;;;;;10.98;2.72;;;;;;;;;;5024829;28;20025;-69
2024/01/11 13:13:40;;;;;;;13.75;2.85;;;;;;;;;;5037793;28;20040;-68
2024/01/11 13:16:26;;;;;;;10.95;4.18;;;;;;;;;;5048908;28;20021;-67
2024/01/11 13:19:11;;;;;;;13.48;3.63;;;;;;;;;;5032575;28;20048;-68
2024/01/11 13:21:58;;;;;;;11.93;3.60;;;;;;;;;;5040197;28;20463;-68
2024/01/11 13:24:44;;;;;;;8.73;2.75;;;;;;;;;;5034967;28;20044;-68
2024/01/11 13:27:31;;;;;;;6.63;3.53;;;;;;;;;;5032873;28;20033;-68
2024/01/11 13:30:16;;;;;;;8.85;2.80;;;;;;;;;;5049938;28;20437;-68
2024/01/11 13:33:02;;;;;;;13.95;3.42;;;;;;;;;;5050361;28;20029;-68
2024/01/11 13:35:48;;;;;;;18.88;3.35;;;;;;;;;;5048883;28;20041;-68
2024/01/11 13:38:33;;;;;;;9.55;2.60;;;;;;;;;;5051060;28;20021;-68
2024/01/11 13:41:19;;;;;;;9.27;3.33;;;;;;;;;;5050736;28;20036;-68
2024/01/11 13:44:05;;;;;;;5.78;2.40;;;;;;;;;;5037699;28;20031;-68
2024/01/11 13:46:51;;;;;;;8.60;2.67;;;;;;;;;;5033990;28;20032;-68
2024/01/11 13:49:37;;;;;;;9.73;3.88;;;;;;;;;;5042809;28;20021;-68
2024/01/11 13:52:22;;;;;;;15.68;3.35;;;;;;;;;;5036354;28;20546;-68
2024/01/11 13:55:10;;;;;;;10.60;3.08;;;;;;;;;;5049665;28;20052;-68
2024/01/11 13:57:55;;;;;;;9.88;2.95;;;;;;;;;;5057156;28;20031;-68
2024/01/11 14:00:41;;;;;;;12.88;3.00;;;;;;;;;;5055872;28;20021;-69
2024/01/11 14:03:27;;;;;;;9.98;2.78;;;;;;;;;;5036967;28;20037;-68
2024/01/11 14:06:13;;;;;;;12.80;2.92;;;;;;;;;;5037386;28;20033;-68
2024/01/11 14:08:58;;;;;;;12.00;3.25;;;;;;;;;;5055997;28;20025;-68
2024/01/11 14:11:44;;;;;;;8.38;3.10;;;;;;;;;;5055900;28;20025;-68
2024/01/11 14:14:30;;;;;;;7.75;2.60;;;;;;;;;;5047144;28;20030;-68
2024/01/11 14:17:15;;;;;;;12.15;2.78;;;;;;;;;;5051385;28;20028;-68
2024/01/11 14:20:02;;;;;;;7.47;2.85;;;;;;;;;;5031439;28;20026;-68
2024/01/11 14:22:49;;;;;;;9.98;3.15;;;;;;;;;;5052461;28;20028;-68
2024/01/11 14:25:35;;;;;;;13.75;3.33;;;;;;;;;;5041175;28;20025;-67
2024/01/11 14:28:21;;;;;;;13.52;4.60;;;;;;;;;;5056171;28;20036;-68
2024/01/11 14:31:06;;;;;;;15.10;4.43;;;;;;;;;;5056359;28;20078;-68
2024/01/11 14:33:52;;;;;;;16.55;4.93;;;;;;;;;;5055848;28;20028;-68
2024/01/11 14:36:38;;;;;;;11.93;5.28;;;;;;;;;;5034640;28;20424;-68
2024/01/11 14:39:24;;;;;;;24.00;7.15;;;;;;;;;;5035588;28;20021;-68
2024/01/11 14:42:09;;;;;;;13.82;5.55;;;;;;;;;;5034731;28;20064;-66
2024/01/11 14:44:55;;;;;;;16.10;4.70;;;;;;;;;;5039869;28;20437;-68
2024/01/11 14:47:41;;;;;;;9.82;4.00;;;;;;;;;;5036259;28;20029;-69
2024/01/11 14:50:28;;;;;;;11.82;3.63;;;;;;;;;;5022055;28;20028;-68
2024/01/11 14:53:14;;;;;;;9.10;3.42;;;;;;;;;;5035317;28;20399;-68
2024/01/11 14:55:59;;;;;;;7.55;3.65;;;;;;;;;;5056128;28;20059;-68
2024/01/11 14:58:45;;;;;;;9.95;3.33;;;;;;;;;;5054369;28;20024;-68
2024/01/11 15:01:30;;;;;;;5.80;2.67;;;;;;;;;;5053237;28;20029;-68
2024/01/11 15:04:17;;;;;;;20.58;3.67;;;;;;;;;;5054670;28;20706;-68
2024/01/11 15:07:03;;;;;;;8.27;3.80;;;;;;;;;;5036321;28;20037;-68
2024/01/11 15:09:49;;;;;;;6.97;3.65;;;;;;;;;;5040969;28;20028;-68
2024/01/11 15:12:35;;;;;;;13.48;3.25;;;;;;;;;;5050230;28;20021;-68
2024/01/11 15:15:20;;;;;;;10.43;3.47;;;;;;;;;;5054656;28;20024;-67
2024/01/11 15:18:06;;;;;;;8.55;3.40;;;;;;;;;;5053429;28;20025;-68
2024/01/11 15:20:52;;;;;;;6.13;3.38;;;;;;;;;;5054048;28;20501;-68
2024/01/11 15:23:37;;;;;;;7.38;4.47;;;;;;;;;;5051833;28;20517;-67
2024/01/11 15:26:23;;;;;;;8.73;3.40;;;;;;;;;;5053620;28;20021;-68
2024/01/11 15:29:09;;;;;;;9.40;5.25;;;;;;;;;;5055039;28;20482;-68
2024/01/11 15:31:54;;;;;;;9.70;3.80;;;;;;;;;;5050014;28;20039;-68
2024/01/11 15:34:40;;;;;;;6.93;3.30;;;;;;;;;;5040238;28;20028;-68
2024/01/11 15:37:28;;;;;;;10.18;3.40;;;;;;;;;;5043541;28;20059;-68
2024/01/11 15:40:14;;;;;;;8.82;3.28;;;;;;;;;;5034210;28;20022;-68
2024/01/11 15:43:01;;;;;;;5.63;3.35;;;;;;;;;;5041944;28;20033;-68
2024/01/11 15:45:46;;;;;;;7.32;3.75;;;;;;;;;;5033900;28;20033;-68
2024/01/11 15:48:32;;;;;;;6.90;3.22;;;;;;;;;;5028000;28;20028;-68
2024/01/11 15:51:17;;;;;;;9.60;3.47;;;;;;;;;;5036331;28;20045;-67
2024/01/11 15:54:03;;;;;;;8.77;3.35;;;;;;;;;;5041432;28;20052;-68
2024/01/11 15:56:49;;;;;;;10.73;3.75;;;;;;;;;;5035759;28;20057;-68
2024/01/11 15:59:34;;;;;;;8.80;3.67;;;;;;;;;;5036149;28;20021;-67
2024/01/11 16:02:20;;;;;;;10.85;5.97;;;;;;;;;;5038256;28;20037;-68
2024/01/11 16:05:06;;;;;;;11.80;3.65;;;;;;;;;;5022586;28;20036;-68
2024/01/11 16:07:52;;;;;;;7.00;3.38;;;;;;;;;;5047945;28;20032;-68
2024/01/11 16:10:38;;;;;;;10.43;4.18;;;;;;;;;;5032824;28;20033;-67
2024/01/11 16:13:24;;;;;;;8.63;3.75;;;;;;;;;;5039909;28;20023;-67
2024/01/11 16:16:09;;;;;;;11.85;4.03;;;;;;;;;;5034244;28;20079;-67
2024/01/11 16:18:55;;;;;;;13.63;4.72;;;;;;;;;;5038919;28;20523;-67
2024/01/11 16:21:42;;;;;;;12.25;4.65;;;;;;;;;;5034619;28;20091;-68
2024/01/11 16:24:28;;;;;;;9.02;4.13;;;;;;;;;;5033204;28;20163;-68
2024/01/11 16:27:14;;;;;;;11.52;4.40;;;;;;;;;;5038696;28;20405;-68
2024/01/11 16:30:00;;;;;;;13.18;4.45;;;;;;;;;;5033868;28;20112;-67